createdAt,value
2018-05-14T00:00:38.152Z,6.45
2018-05-14T00:03:06.459Z,6.05
2018-05-14T00:05:33.896Z,6.07
2018-05-14T00:08:01.333Z,6.30
2018-05-14T00:10:29.541Z,6.27
2018-05-14T00:12:56.977Z,5.60
2018-05-14T00:15:24.462Z,5.72
2018-05-14T00:17:51.881Z,5.80
2018-05-14T00:20:20.090Z,5.70
2018-05-14T00:22:47.552Z,6.10
2018-05-14T00:25:14.982Z,6.40
2018-05-14T00:27:42.414Z,6.20
2018-05-14T00:30:09.941Z,6.12
2018-05-14T00:32:37.383Z,6.80
2018-05-14T00:35:04.824Z,6.22
2018-05-14T00:37:32.244Z,7.62
2018-05-14T00:39:59.669Z,7.97
2018-05-14T00:42:27.119Z,8.43
2018-05-14T00:44:54.549Z,8.48
2018-05-14T00:47:22.002Z,6.68
2018-05-14T00:49:49.425Z,7.57
2018-05-14T00:52:17.649Z,7.70
2018-05-14T00:54:56.888Z,6.93
2018-05-14T00:57:24.348Z,6.70
2018-05-14T00:59:51.785Z,7.43
2018-05-14T01:02:19.263Z,7.12
2018-05-14T01:04:46.698Z,7.30
2018-05-14T01:07:14.128Z,6.82
2018-05-14T01:09:41.569Z,6.65
2018-05-14T01:12:09.884Z,7.07
2018-05-14T01:14:37.297Z,7.30
2018-05-14T01:17:05.612Z,6.83
2018-05-14T01:19:33.029Z,7.00
2018-05-14T01:22:01.255Z,6.50
2018-05-14T01:24:28.712Z,7.22
2018-05-14T01:26:56.153Z,6.70
2018-05-14T01:29:23.590Z,6.85
2018-05-14T01:31:51.063Z,6.97
2018-05-14T01:34:18.543Z,6.43
2018-05-14T01:36:46.002Z,6.25
2018-05-14T01:39:13.437Z,7.00
2018-05-14T01:41:40.888Z,7.10
2018-05-14T01:44:08.374Z,7.12
2018-05-14T01:46:35.829Z,7.03
2018-05-14T01:49:03.248Z,6.87
2018-05-14T01:51:30.752Z,6.68
2018-05-14T01:53:58.171Z,7.00
2018-05-14T01:56:25.658Z,6.30
2018-05-14T01:58:53.120Z,7.32
2018-05-14T02:01:20.633Z,6.70
2018-05-14T02:03:48.125Z,6.90
2018-05-14T02:06:15.583Z,6.72
2018-05-14T02:08:43.041Z,6.65
2018-05-14T02:11:10.466Z,6.95
2018-05-14T02:13:37.909Z,6.95
2018-05-14T02:16:05.340Z,7.35
2018-05-14T02:18:33.585Z,7.05
2018-05-14T02:21:01.004Z,7.05
2018-05-14T02:23:28.571Z,7.30
2018-05-14T02:25:56.005Z,6.70
2018-05-14T02:28:23.440Z,7.50
2018-05-14T02:30:51.645Z,7.03
2018-05-14T02:33:19.113Z,6.80
2018-05-14T02:35:46.536Z,8.15
2018-05-14T02:38:14.764Z,7.37
2018-05-14T02:40:42.220Z,7.03
2018-05-14T02:43:09.653Z,7.20
2018-05-14T02:45:37.092Z,7.30
2018-05-14T02:48:04.526Z,7.50
2018-05-14T02:50:32.725Z,7.40
2018-05-14T02:53:00.195Z,7.53
2018-05-14T02:55:27.616Z,7.47
2018-05-14T02:57:55.812Z,8.10
2018-05-14T03:00:23.250Z,7.23
2018-05-14T03:02:51.457Z,7.40
2018-05-14T03:05:18.881Z,7.60
2018-05-14T03:07:46.325Z,7.20
2018-05-14T03:10:13.849Z,7.75
2018-05-14T03:12:41.292Z,7.97
2018-05-14T03:15:08.730Z,7.70
2018-05-14T03:17:36.191Z,7.20
2018-05-14T03:20:03.612Z,7.90
2018-05-14T03:22:31.872Z,7.60
2018-05-14T03:24:59.381Z,8.38
2018-05-14T03:27:26.810Z,7.78
2018-05-14T03:29:55.056Z,7.35
2018-05-14T03:32:22.469Z,7.50
2018-05-14T03:34:49.953Z,7.72
2018-05-14T03:37:17.396Z,8.43
2018-05-14T03:39:44.889Z,7.50
2018-05-14T03:42:12.333Z,7.53
2018-05-14T03:44:39.752Z,7.70
2018-05-14T03:47:07.198Z,7.85
2018-05-14T03:49:34.633Z,7.70
2018-05-14T03:52:02.833Z,8.15
2018-05-14T03:54:30.322Z,8.43
2018-05-14T03:56:57.756Z,8.25
2018-05-14T03:59:36.995Z,8.00
2018-05-14T04:02:25.377Z,7.97
2018-05-14T04:05:04.693Z,8.00
2018-05-14T04:07:32.225Z,8.03
2018-05-14T04:09:59.700Z,8.25
2018-05-14T04:12:27.144Z,7.60
2018-05-14T04:14:54.591Z,7.90
2018-05-14T04:17:22.012Z,8.20
2018-05-14T04:19:50.215Z,8.00
2018-05-14T04:22:17.645Z,7.78
2018-05-14T04:24:45.849Z,8.05
2018-05-14T04:27:13.271Z,7.50
2018-05-14T04:29:40.725Z,8.30
2018-05-14T04:32:08.915Z,8.65
2018-05-14T04:34:36.417Z,8.50
2018-05-14T04:37:03.850Z,7.60
2018-05-14T04:39:31.426Z,8.30
2018-05-14T04:41:58.862Z,8.52
2018-05-14T04:44:26.290Z,8.30
2018-05-14T04:46:54.591Z,8.20
2018-05-14T04:49:22.022Z,8.32
2018-05-14T04:51:50.617Z,9.05
2018-05-14T04:54:18.078Z,8.43
2018-05-14T04:56:45.542Z,7.97
2018-05-14T04:59:13.086Z,8.30
2018-05-14T05:01:40.489Z,8.00
2018-05-14T05:04:07.915Z,7.60
2018-05-14T05:06:35.344Z,8.52
2018-05-14T05:09:02.792Z,8.10
2018-05-14T05:11:31.049Z,8.20
2018-05-14T05:13:58.445Z,8.10
2018-05-14T05:16:25.894Z,8.05
2018-05-14T05:18:53.382Z,13.60
2018-05-14T05:21:20.816Z,8.60
2018-05-14T05:23:48.278Z,9.07
2018-05-14T05:26:15.714Z,7.50
2018-05-14T05:28:43.923Z,8.35
2018-05-14T05:31:11.365Z,8.20
2018-05-14T05:33:38.806Z,7.70
2018-05-14T05:36:06.248Z,8.50
2018-05-14T05:38:34.555Z,9.50
2018-05-14T05:41:01.998Z,8.80
2018-05-14T05:43:29.465Z,8.40
2018-05-14T05:45:56.940Z,8.50
2018-05-14T05:48:24.404Z,7.97
2018-05-14T05:50:51.849Z,7.80
2018-05-14T05:53:19.290Z,8.07
2018-05-14T05:55:46.737Z,8.88
2018-05-14T05:58:14.184Z,8.20
2018-05-14T06:00:41.626Z,7.43
2018-05-14T06:03:09.915Z,8.02
2018-05-14T06:05:37.495Z,7.20
2018-05-14T06:08:04.963Z,8.20
2018-05-14T06:10:32.386Z,7.47
2018-05-14T06:12:59.837Z,7.22
2018-05-14T06:15:28.041Z,7.15
2018-05-14T06:17:55.491Z,7.30
2018-05-14T06:20:22.926Z,8.00
2018-05-14T06:22:50.348Z,7.60
2018-05-14T06:25:17.798Z,6.93
2018-05-14T06:27:45.314Z,7.50
2018-05-14T06:30:12.708Z,7.60
2018-05-14T06:32:40.145Z,7.25
2018-05-14T06:35:07.622Z,7.25
2018-05-14T06:37:35.061Z,7.75
2018-05-14T06:40:02.614Z,7.28
2018-05-14T06:42:30.100Z,7.22
2018-05-14T06:44:57.560Z,7.30
2018-05-14T06:47:25.011Z,7.50
2018-05-14T06:49:52.581Z,6.70
2018-05-14T06:52:20.018Z,6.87
2018-05-14T06:54:47.554Z,7.00
2018-05-14T06:57:15.015Z,6.90
2018-05-14T06:59:42.431Z,6.40
2018-05-14T07:02:10.639Z,6.43
2018-05-14T07:04:38.144Z,6.60
2018-05-14T07:07:05.581Z,6.47
2018-05-14T07:09:33.041Z,6.72
2018-05-14T07:12:00.480Z,7.10
2018-05-14T07:14:27.941Z,7.10
2018-05-14T07:16:55.479Z,7.07
2018-05-14T07:19:23.067Z,6.57
2018-05-14T07:21:50.780Z,6.12
2018-05-14T07:24:19.002Z,6.68
2018-05-14T07:26:46.445Z,6.60
2018-05-14T07:29:13.912Z,7.00
2018-05-14T07:31:41.350Z,6.07
2018-05-14T07:34:08.951Z,6.50
2018-05-14T07:36:36.471Z,6.10
2018-05-14T07:39:03.893Z,6.30
2018-05-14T07:41:32.119Z,6.43
2018-05-14T07:43:59.658Z,6.43
2018-05-14T07:46:27.218Z,6.07
2018-05-14T07:48:54.648Z,6.30
2018-05-14T07:51:22.226Z,6.50
2018-05-14T07:53:49.970Z,6.40
2018-05-14T07:56:17.164Z,6.07
2018-05-14T07:58:44.629Z,6.10
2018-05-14T08:01:12.136Z,6.37
2018-05-14T08:03:39.577Z,5.60
2018-05-14T08:06:07.793Z,5.82
2018-05-14T08:08:35.217Z,5.67
2018-05-14T08:11:02.741Z,6.20
2018-05-14T08:13:30.179Z,6.22
2018-05-14T08:15:57.652Z,6.28
2018-05-14T08:18:25.168Z,6.55
2018-05-14T08:20:52.601Z,6.40
2018-05-14T08:23:20.814Z,6.05
2018-05-14T08:25:48.252Z,6.00
2018-05-14T08:28:15.671Z,6.20
2018-05-14T08:30:43.918Z,6.03
2018-05-14T08:33:11.443Z,6.28
2018-05-14T08:35:38.871Z,6.15
2018-05-14T08:38:06.335Z,5.70
2018-05-14T08:40:33.811Z,7.00
2018-05-14T08:43:01.270Z,7.10
2018-05-14T08:45:28.713Z,6.05
2018-05-14T08:47:56.233Z,6.10
2018-05-14T08:50:23.639Z,6.40
2018-05-14T08:52:51.204Z,5.82
2018-05-14T08:55:18.649Z,5.87
2018-05-14T08:57:46.162Z,5.90
2018-05-14T09:00:13.593Z,5.70
2018-05-14T09:02:41.021Z,6.35
2018-05-14T09:05:08.475Z,6.87
2018-05-14T09:07:35.970Z,6.60
2018-05-14T09:10:03.500Z,5.80
2018-05-14T09:12:30.933Z,6.72
2018-05-14T09:14:58.400Z,5.65
2018-05-14T09:17:25.837Z,6.23
2018-05-14T09:19:53.308Z,5.90
2018-05-14T09:22:20.874Z,6.22
2018-05-14T09:24:48.310Z,6.03
2018-05-14T09:27:15.737Z,6.07
2018-05-14T09:29:43.168Z,5.78
2018-05-14T09:32:10.663Z,5.60
2018-05-14T09:34:38.088Z,5.70
2018-05-14T09:37:05.637Z,6.10
2018-05-14T09:39:33.068Z,5.43
2018-05-14T09:42:00.519Z,5.55
2018-05-14T09:44:27.997Z,6.15
2018-05-14T09:46:56.153Z,5.50
2018-05-14T09:49:23.609Z,5.28
2018-05-14T09:51:51.028Z,5.57
2018-05-14T09:54:19.259Z,6.50
2018-05-14T09:56:46.741Z,7.20
2018-05-14T09:59:14.200Z,5.62
2018-05-14T10:01:41.644Z,5.95
2018-05-14T10:04:09.072Z,5.25
2018-05-14T10:06:36.627Z,5.00
2018-05-14T10:09:04.051Z,5.20
2018-05-14T10:11:32.272Z,5.30
2018-05-14T10:13:59.705Z,5.32
2018-05-14T10:16:27.181Z,5.20
2018-05-14T10:18:54.779Z,5.22
2018-05-14T10:21:22.285Z,5.47
2018-05-14T10:23:49.741Z,5.50
2018-05-14T10:26:17.231Z,5.75
2018-05-14T10:28:44.758Z,5.00
2018-05-14T10:31:12.269Z,4.43
2018-05-14T10:33:39.877Z,4.68
2018-05-14T10:36:07.437Z,5.10
2018-05-14T10:38:34.894Z,5.37
2018-05-14T10:41:02.339Z,6.40
2018-05-14T10:43:29.784Z,4.60
2018-05-14T10:45:57.992Z,5.20
2018-05-14T10:48:25.544Z,5.30
2018-05-14T10:50:52.977Z,5.57
2018-05-14T10:53:20.409Z,5.68
2018-05-14T10:55:48.619Z,4.30
2018-05-14T10:58:16.054Z,6.10
2018-05-14T11:00:43.488Z,4.80
2018-05-14T11:03:10.925Z,5.00
2018-05-14T11:05:38.369Z,6.07
2018-05-14T11:08:05.814Z,5.10
2018-05-14T11:10:33.321Z,6.10
2018-05-14T11:13:00.688Z,5.50
2018-05-14T11:15:28.886Z,5.80
2018-05-14T11:17:56.395Z,5.18
2018-05-14T11:20:23.834Z,5.32
2018-05-14T11:22:51.280Z,5.93
2018-05-14T11:25:18.717Z,6.50
2018-05-14T11:27:46.215Z,7.40
2018-05-14T11:30:14.367Z,6.30
2018-05-14T11:32:41.907Z,5.97
2018-05-14T11:35:09.326Z,6.12
2018-05-14T11:37:37.536Z,6.00
2018-05-14T11:40:04.960Z,6.15
2018-05-14T11:42:33.209Z,6.53
2018-05-14T11:45:00.653Z,6.20
2018-05-14T11:47:28.110Z,6.10
2018-05-14T11:49:55.577Z,6.20
2018-05-14T11:52:23.026Z,5.87
2018-05-14T11:54:50.436Z,6.30
2018-05-14T11:57:17.895Z,5.80
2018-05-14T11:59:45.328Z,6.20
2018-05-14T12:02:13.642Z,6.10
2018-05-14T12:04:41.056Z,6.47
2018-05-14T12:07:09.282Z,6.30
2018-05-14T12:09:36.749Z,6.60
2018-05-14T12:12:04.371Z,5.93
2018-05-14T12:14:31.847Z,5.65
2018-05-14T12:16:59.404Z,6.10
2018-05-14T12:19:26.832Z,7.00
2018-05-14T12:21:55.078Z,6.75
2018-05-14T12:24:22.532Z,6.10
2018-05-14T12:26:49.952Z,6.70
2018-05-14T12:29:17.390Z,6.20
2018-05-14T12:31:44.888Z,6.70
2018-05-14T12:34:12.344Z,6.50
2018-05-14T12:36:39.881Z,5.90
2018-05-14T12:39:07.312Z,6.20
2018-05-14T12:41:34.748Z,6.00
2018-05-14T12:44:02.974Z,6.50
2018-05-14T12:46:30.414Z,6.10
2018-05-14T12:48:57.861Z,6.70
2018-05-14T12:51:26.052Z,6.00
2018-05-14T12:53:53.488Z,6.00
2018-05-14T12:56:20.936Z,6.05
2018-05-14T12:58:48.383Z,6.50
2018-05-14T13:01:16.590Z,7.37
2018-05-14T13:03:44.029Z,7.60
2018-05-14T13:06:11.498Z,6.40
2018-05-14T13:08:38.958Z,6.57
2018-05-14T13:11:06.409Z,7.57
2018-05-14T13:13:33.839Z,6.90
2018-05-14T13:16:02.148Z,6.32
2018-05-14T13:18:29.578Z,6.70
2018-05-14T13:20:57.780Z,7.20
2018-05-14T13:23:25.256Z,6.60
2018-05-14T13:25:52.712Z,7.10
2018-05-14T13:28:20.148Z,6.70
2018-05-14T13:30:48.460Z,6.40
2018-05-14T13:33:16.008Z,6.10
2018-05-14T13:35:43.460Z,6.47
2018-05-14T13:38:10.992Z,6.55
2018-05-14T13:40:38.461Z,6.68
2018-05-14T13:43:06.657Z,7.10
2018-05-14T13:45:34.214Z,7.20
2018-05-14T13:48:01.829Z,6.57
2018-05-14T13:50:29.240Z,6.60
2018-05-14T13:52:56.684Z,6.50
2018-05-14T13:55:24.126Z,7.07
2018-05-14T13:57:51.561Z,6.07
2018-05-14T14:00:19.769Z,6.10
2018-05-14T14:02:47.207Z,6.20
2018-05-14T14:05:14.651Z,7.37
2018-05-14T14:07:42.855Z,8.10
2018-05-14T14:10:10.309Z,7.12
2018-05-14T14:12:37.753Z,7.57
2018-05-14T14:15:05.193Z,6.90
2018-05-14T14:17:33.400Z,6.53
2018-05-14T14:20:00.868Z,8.57
2018-05-14T14:22:28.316Z,6.50
2018-05-14T14:24:55.793Z,6.22
2018-05-14T14:27:23.240Z,6.40
2018-05-14T14:29:50.813Z,6.20
2018-05-14T14:32:18.974Z,6.72
2018-05-14T14:34:46.411Z,6.95
2018-05-14T14:37:13.911Z,9.10
2018-05-14T14:39:41.369Z,7.97
2018-05-14T14:42:12.761Z,6.15
2018-05-14T14:44:40.121Z,6.65
2018-05-14T14:47:07.684Z,7.25
2018-05-14T14:49:35.249Z,15.63
2018-05-14T14:52:02.663Z,7.40
2018-05-14T14:54:30.880Z,12.55
2018-05-14T14:56:58.368Z,7.00
2018-05-14T14:59:25.947Z,8.60
2018-05-14T15:01:54.165Z,6.55
2018-05-14T15:04:21.608Z,6.60
2018-05-14T15:06:49.036Z,6.95
2018-05-14T15:09:17.256Z,21.75
2018-05-14T15:11:44.688Z,22.53
2018-05-14T15:14:12.126Z,6.40
2018-05-14T15:16:40.333Z,6.20
2018-05-14T15:19:07.790Z,7.20
2018-05-14T15:21:35.205Z,5.60
2018-05-14T15:24:03.419Z,5.78
2018-05-14T15:26:30.854Z,5.35
2018-05-14T15:28:59.078Z,7.10
2018-05-14T15:31:26.505Z,5.60
2018-05-14T15:33:53.946Z,5.50
2018-05-14T15:36:21.376Z,5.43
2018-05-14T15:38:50.228Z,5.13
2018-05-14T15:41:17.685Z,6.07
2018-05-14T15:43:45.105Z,5.50
2018-05-14T15:46:12.555Z,5.05
2018-05-14T15:48:40.790Z,5.32
2018-05-14T15:51:08.234Z,5.10
2018-05-14T15:53:35.676Z,5.68
2018-05-14T15:56:03.108Z,5.45
2018-05-14T15:58:30.541Z,5.40
2018-05-14T16:00:58.756Z,5.00
2018-05-14T16:03:26.314Z,5.47
2018-05-14T16:05:53.875Z,5.20
2018-05-14T16:08:21.328Z,5.20
2018-05-14T16:10:48.752Z,5.15
2018-05-14T16:13:16.963Z,5.28
2018-05-14T16:15:44.408Z,5.45
2018-05-14T16:18:11.832Z,5.40
2018-05-14T16:20:40.151Z,5.78
2018-05-14T16:23:07.561Z,4.90
2018-05-14T16:25:35.768Z,4.68
2018-05-14T16:28:03.977Z,5.10
2018-05-14T16:30:31.420Z,4.82
2018-05-14T16:32:58.855Z,4.40
2018-05-14T16:35:27.055Z,4.10
2018-05-14T16:37:54.527Z,4.90
2018-05-14T16:40:21.979Z,4.60
2018-05-14T16:42:49.411Z,5.20
2018-05-14T16:45:17.610Z,5.30
2018-05-14T16:47:45.101Z,4.78
2018-05-14T16:50:12.601Z,5.10
2018-05-14T16:52:40.785Z,5.20
2018-05-14T16:55:08.357Z,5.40
2018-05-14T16:57:35.895Z,4.90
2018-05-14T17:00:03.373Z,4.97
2018-05-14T17:02:30.789Z,4.95
2018-05-14T17:07:33.115Z,4.90
2018-05-14T17:10:00.548Z,4.25
2018-05-14T17:12:27.990Z,5.03
2018-05-14T17:14:56.304Z,4.90
2018-05-14T17:17:23.770Z,5.10
2018-05-14T17:19:51.202Z,4.97
2018-05-14T17:22:18.635Z,5.32
2018-05-14T17:24:46.840Z,5.30
2018-05-14T17:27:14.290Z,4.50
2018-05-14T17:29:41.732Z,5.07
2018-05-14T17:32:09.184Z,4.93
2018-05-14T17:34:37.393Z,4.73
2018-05-14T17:37:04.841Z,5.00
2018-05-14T17:39:32.306Z,5.07
2018-05-14T17:41:59.739Z,4.90
2018-05-14T17:44:27.182Z,4.97
2018-05-14T17:46:55.447Z,9.80
2018-05-14T17:49:22.878Z,5.25
2018-05-14T17:51:50.325Z,98.82
2018-05-14T17:54:17.872Z,37.55
2018-05-14T17:56:45.325Z,10.43
2018-05-14T17:59:13.665Z,270.23
2018-05-14T18:01:41.886Z,233.43
2018-05-14T18:04:09.336Z,724.85
2018-05-14T18:06:36.788Z,914.33
2018-05-14T18:09:04.231Z,270.05
2018-05-14T18:11:31.752Z,125.05
2018-05-14T18:13:59.265Z,30.75
2018-05-14T18:16:26.822Z,14.90
2018-05-14T18:18:54.296Z,6.37
2018-05-14T18:21:27.579Z,6.30
2018-05-14T18:23:55.055Z,5.65
2018-05-14T18:26:25.455Z,6.32
2018-05-14T18:28:52.904Z,5.78
2018-05-14T18:31:26.041Z,5.62
2018-05-14T18:33:53.517Z,6.60
2018-05-14T18:36:21.093Z,6.50
2018-05-14T18:38:49.168Z,6.20
2018-05-14T18:41:16.668Z,6.60
2018-05-14T18:43:44.131Z,6.60
2018-05-14T18:46:11.576Z,6.32
2018-05-14T18:48:39.017Z,7.47
2018-05-14T18:51:06.518Z,6.50
2018-05-14T18:53:33.980Z,6.70
2018-05-14T18:56:01.432Z,6.80
2018-05-14T18:58:28.993Z,7.10
2018-05-14T19:00:57.211Z,6.72
2018-05-14T19:03:24.640Z,6.60
2018-05-14T19:05:52.857Z,7.03
2018-05-14T19:08:20.306Z,5.95
2018-05-14T19:10:53.444Z,6.85
2018-05-14T19:13:20.870Z,6.75
2018-05-14T19:15:54.029Z,6.53
2018-05-14T19:18:21.490Z,6.60
2018-05-14T19:20:48.988Z,6.80
2018-05-14T19:23:22.127Z,6.75
2018-05-14T19:25:50.366Z,6.82
2018-05-14T19:28:23.414Z,6.50
2018-05-14T19:30:50.856Z,7.10
2018-05-14T19:33:24.152Z,6.20
2018-05-14T19:35:58.131Z,6.35
2018-05-14T19:38:25.565Z,6.73
2018-05-14T19:40:53.077Z,6.60
2018-05-14T19:43:20.491Z,6.50
2018-05-14T19:45:47.917Z,6.82
2018-05-14T19:48:15.395Z,6.80
2018-05-14T19:50:43.006Z,6.57
2018-05-14T19:53:10.445Z,6.60
2018-05-14T19:55:37.922Z,7.18
2018-05-14T19:58:05.377Z,6.53
2018-05-14T20:00:32.847Z,6.50
2018-05-14T20:03:00.390Z,6.90
2018-05-14T20:05:27.812Z,6.72
2018-05-14T20:07:56.336Z,6.60
2018-05-14T20:10:23.808Z,6.50
2018-05-14T20:12:51.389Z,7.17
2018-05-14T20:15:18.824Z,6.95
2018-05-14T20:17:46.267Z,7.28
2018-05-14T20:20:13.739Z,7.05
2018-05-14T20:22:41.883Z,7.65
2018-05-14T20:25:09.577Z,7.00
2018-05-14T20:27:37.020Z,7.55
2018-05-14T20:30:04.496Z,7.03
2018-05-14T20:32:31.953Z,7.10
2018-05-14T20:34:59.393Z,7.60
2018-05-14T20:37:26.881Z,6.80
2018-05-14T20:39:54.269Z,7.07
2018-05-14T20:42:21.751Z,7.53
2018-05-14T20:44:49.204Z,7.78
2018-05-14T20:47:16.708Z,7.40
2018-05-14T20:49:44.147Z,7.43
2018-05-14T20:52:11.663Z,7.50
2018-05-14T20:54:39.036Z,7.20
2018-05-14T20:57:06.538Z,7.28
2018-05-14T20:59:33.976Z,6.93
2018-05-14T21:02:01.435Z,7.93
2018-05-14T21:04:28.859Z,8.15
2018-05-14T21:06:56.420Z,7.62
2018-05-14T21:09:23.898Z,7.82
2018-05-14T21:11:51.513Z,7.85
2018-05-14T21:14:19.025Z,7.40
2018-05-14T21:16:46.481Z,8.00
2018-05-14T21:19:13.919Z,8.73
2018-05-14T21:21:41.358Z,7.87
2018-05-14T21:24:08.802Z,7.68
2018-05-14T21:26:36.237Z,8.10
2018-05-14T21:29:04.496Z,8.10
2018-05-14T21:31:32.005Z,7.43
2018-05-14T21:33:59.420Z,7.37
2018-05-14T21:36:27.630Z,8.25
2018-05-14T21:38:55.070Z,7.90
2018-05-14T21:41:23.265Z,8.27
2018-05-14T21:43:50.699Z,7.75
2018-05-14T21:46:18.128Z,8.40
2018-05-14T21:48:46.383Z,8.30
2018-05-14T21:51:13.807Z,8.00
2018-05-14T21:53:41.262Z,8.00
2018-05-14T21:56:08.700Z,8.30
2018-05-14T21:58:36.196Z,8.20
2018-05-14T22:01:03.632Z,8.45
2018-05-14T22:03:31.081Z,8.40
2018-05-14T22:05:58.513Z,8.30
2018-05-14T22:08:26.724Z,8.30
2018-05-14T22:10:54.174Z,8.13
2018-05-14T22:13:21.639Z,8.63
2018-05-14T22:15:49.071Z,8.10
2018-05-14T22:18:16.658Z,8.23
2018-05-14T22:20:44.101Z,7.93
2018-05-14T22:23:11.641Z,8.20
2018-05-14T22:25:39.084Z,8.70
2018-05-14T22:28:07.316Z,7.93
2018-05-14T22:30:34.763Z,8.30
2018-05-14T22:33:02.219Z,8.02
2018-05-14T22:35:29.719Z,8.15
2018-05-14T22:37:57.109Z,7.95
2018-05-14T22:40:24.601Z,7.90
2018-05-14T22:42:52.097Z,8.03
2018-05-14T22:45:19.504Z,8.07
2018-05-14T22:47:47.044Z,8.52
2018-05-14T22:50:14.465Z,8.50
2018-05-14T22:52:42.681Z,8.85
2018-05-14T22:55:10.120Z,9.50
2018-05-14T22:57:37.557Z,9.30
2018-05-14T23:00:05.011Z,8.85
2018-05-14T23:02:33.237Z,9.00
2018-05-14T23:05:00.796Z,8.60
2018-05-14T23:07:28.256Z,8.90
2018-05-14T23:09:55.695Z,8.90
2018-05-14T23:12:23.256Z,9.40
2018-05-14T23:14:50.684Z,9.57
2018-05-14T23:17:18.185Z,9.60
2018-05-14T23:19:45.632Z,9.40
2018-05-14T23:22:16.040Z,9.50
2018-05-14T23:24:43.463Z,9.82
2018-05-14T23:27:11.673Z,9.45
2018-05-14T23:29:39.116Z,9.63
2018-05-14T23:32:06.604Z,9.30
2018-05-14T23:34:34.053Z,9.45
2018-05-14T23:37:01.503Z,10.10
2018-05-14T23:39:28.964Z,10.18
2018-05-14T23:41:56.404Z,10.70
2018-05-14T23:44:23.844Z,10.38
2018-05-14T23:46:51.280Z,10.30
2018-05-14T23:49:19.489Z,10.07
2018-05-14T23:51:46.925Z,11.77
2018-05-14T23:54:14.379Z,11.95
2018-05-14T23:56:42.596Z,11.73
2018-05-14T23:59:10.032Z,11.88
